sensor_id;sensor_type;location;lat;lon;timestamp;temperature;humidity
3996;DHT22;2012;49.794;9.722;2023-04-29T00:00:41;10.40;99.90
3996;DHT22;2012;49.794;9.722;2023-04-29T00:03:08;10.50;99.90
3996;DHT22;2012;49.794;9.722;2023-04-29T00:05:35;10.40;99.90
3996;DHT22;2012;49.794;9.722;2023-04-29T00:08:03;10.30;99.90
3996;DHT22;2012;49.794;9.722;2023-04-29T00:10:30;10.40;99.90
3996;DHT22;2012;49.794;9.722;2023-04-29T00:12:57;10.20;99.90
3996;DHT22;2012;49.794;9.722;2023-04-29T00:15:24;10.20;99.90
3996;DHT22;2012;49.794;9.722;2023-04-29T00:17:51;10.20;99.90
3996;DHT22;2012;49.794;9.722;2023-04-29T00:20:18;10.20;99.90
3996;DHT22;2012;49.794;9.722;2023-04-29T00:22:44;10.30;99.90
3996;DHT22;2012;49.794;9.722;2023-04-29T00:25:11;10.10;99.90
3996;DHT22;2012;49.794;9.722;2023-04-29T00:27:38;10.20;99.90
3996;DHT22;2012;49.794;9.722;2023-04-29T00:30:06;10.30;99.90
3996;DHT22;2012;49.794;9.722;2023-04-29T00:32:34;10.40;99.90
3996;DHT22;2012;49.794;9.722;2023-04-29T00:35:01;10.40;99.90
3996;DHT22;2012;49.794;9.722;2023-04-29T00:37:27;10.20;99.90
3996;DHT22;2012;49.794;9.722;2023-04-29T00:39:54;10.10;99.90
3996;DHT22;2012;49.794;9.722;2023-04-29T00:42:21;10.30;99.90
3996;DHT22;2012;49.794;9.722;2023-04-29T00:44:48;10.20;99.90
3996;DHT22;2012;49.794;9.722;2023-04-29T00:47:14;10.10;99.90
3996;DHT22;2012;49.794;9.722;2023-04-29T00:49:42;10.10;99.90
3996;DHT22;2012;49.794;9.722;2023-04-29T00:52:10;10.10;99.90
3996;DHT22;2012;49.794;9.722;2023-04-29T00:54:40;10.20;99.90
3996;DHT22;2012;49.794;9.722;2023-04-29T00:57:07;10.10;99.90
3996;DHT22;2012;49.794;9.722;2023-04-29T00:59:36;10.10;99.90
3996;DHT22;2012;49.794;9.722;2023-04-29T01:02:03;10.20;99.90
3996;DHT22;2012;49.794;9.722;2023-04-29T01:04:31;10.10;99.90
3996;DHT22;2012;49.794;9.722;2023-04-29T01:10:09;9.80;99.90
3996;DHT22;2012;49.794;9.722;2023-04-29T01:12:58;9.90;99.90
3996;DHT22;2012;49.794;9.722;2023-04-29T01:18:11;9.90;99.90
3996;DHT22;2012;49.794;9.722;2023-04-29T01:20:41;9.70;99.90
3996;DHT22;2012;49.794;9.722;2023-04-29T01:23:10;9.90;99.90
3996;DHT22;2012;49.794;9.722;2023-04-29T01:25:39;9.90;99.90
3996;DHT22;2012;49.794;9.722;2023-04-29T01:28:46;10.00;99.90
3996;DHT22;2012;49.794;9.722;2023-04-29T01:31:22;10.00;99.90
3996;DHT22;2012;49.794;9.722;2023-04-29T01:39:44;9.80;99.90
3996;DHT22;2012;49.794;9.722;2023-04-29T01:42:23;9.80;99.90
3996;DHT22;2012;49.794;9.722;2023-04-29T01:44:54;9.80;99.90
3996;DHT22;2012;49.794;9.722;2023-04-29T01:47:23;9.80;99.90
3996;DHT22;2012;49.794;9.722;2023-04-29T01:49:52;9.70;99.90
3996;DHT22;2012;49.794;9.722;2023-04-29T01:52:20;9.50;99.90
3996;DHT22;2012;49.794;9.722;2023-04-29T01:54:54;9.50;99.90
3996;DHT22;2012;49.794;9.722;2023-04-29T01:57:23;9.60;99.90
3996;DHT22;2012;49.794;9.722;2023-04-29T01:59:55;9.50;99.90
3996;DHT22;2012;49.794;9.722;2023-04-29T02:02:46;9.60;99.90
3996;DHT22;2012;49.794;9.722;2023-04-29T02:05:33;9.70;99.90
3996;DHT22;2012;49.794;9.722;2023-04-29T02:08:02;9.70;99.90
3996;DHT22;2012;49.794;9.722;2023-04-29T02:10:30;9.70;99.90
3996;DHT22;2012;49.794;9.722;2023-04-29T02:13:08;9.60;99.90
3996;DHT22;2012;49.794;9.722;2023-04-29T02:15:38;9.50;99.90
3996;DHT22;2012;49.794;9.722;2023-04-29T02:18:05;9.50;99.90
3996;DHT22;2012;49.794;9.722;2023-04-29T02:20:31;9.40;99.90
3996;DHT22;2012;49.794;9.722;2023-04-29T02:22:58;9.50;99.90
3996;DHT22;2012;49.794;9.722;2023-04-29T02:25:25;9.30;99.90
3996;DHT22;2012;49.794;9.722;2023-04-29T02:27:52;9.40;99.90
3996;DHT22;2012;49.794;9.722;2023-04-29T02:30:19;9.30;99.90
3996;DHT22;2012;49.794;9.722;2023-04-29T02:32:45;9.50;99.90
3996;DHT22;2012;49.794;9.722;2023-04-29T02:35:13;9.40;99.90
3996;DHT22;2012;49.794;9.722;2023-04-29T02:37:40;9.40;99.90
3996;DHT22;2012;49.794;9.722;2023-04-29T02:40:07;9.30;99.90
3996;DHT22;2012;49.794;9.722;2023-04-29T02:42:34;9.20;99.90
3996;DHT22;2012;49.794;9.722;2023-04-29T02:45:01;9.20;99.90
3996;DHT22;2012;49.794;9.722;2023-04-29T02:47:28;9.20;99.90
3996;DHT22;2012;49.794;9.722;2023-04-29T02:49:55;9.30;99.90
3996;DHT22;2012;49.794;9.722;2023-04-29T02:52:22;9.30;99.90
3996;DHT22;2012;49.794;9.722;2023-04-29T02:54:49;9.20;99.90
3996;DHT22;2012;49.794;9.722;2023-04-29T02:57:16;9.00;99.90
3996;DHT22;2012;49.794;9.722;2023-04-29T02:59:43;9.10;99.90
3996;DHT22;2012;49.794;9.722;2023-04-29T03:02:11;9.10;99.90
3996;DHT22;2012;49.794;9.722;2023-04-29T03:04:39;9.10;99.90
3996;DHT22;2012;49.794;9.722;2023-04-29T03:07:06;9.20;99.90
3996;DHT22;2012;49.794;9.722;2023-04-29T03:09:33;9.10;99.90
3996;DHT22;2012;49.794;9.722;2023-04-29T03:12:01;9.20;99.90
3996;DHT22;2012;49.794;9.722;2023-04-29T03:14:29;9.10;99.90
3996;DHT22;2012;49.794;9.722;2023-04-29T03:16:57;9.20;99.90
3996;DHT22;2012;49.794;9.722;2023-04-29T03:19:24;9.20;99.90
3996;DHT22;2012;49.794;9.722;2023-04-29T03:21:51;9.20;99.90
3996;DHT22;2012;49.794;9.722;2023-04-29T03:24:20;8.90;99.90
3996;DHT22;2012;49.794;9.722;2023-04-29T03:26:47;9.00;99.90
3996;DHT22;2012;49.794;9.722;2023-04-29T03:29:13;9.10;99.90
3996;DHT22;2012;49.794;9.722;2023-04-29T03:31:41;9.20;99.90
3996;DHT22;2012;49.794;9.722;2023-04-29T03:34:08;9.20;99.90
3996;DHT22;2012;49.794;9.722;2023-04-29T03:36:38;9.30;99.90
3996;DHT22;2012;49.794;9.722;2023-04-29T03:39:06;9.30;99.90
3996;DHT22;2012;49.794;9.722;2023-04-29T03:41:33;9.30;99.90
3996;DHT22;2012;49.794;9.722;2023-04-29T03:44:00;9.40;99.90
3996;DHT22;2012;49.794;9.722;2023-04-29T03:46:28;9.40;99.90
3996;DHT22;2012;49.794;9.722;2023-04-29T03:48:55;9.40;99.90
3996;DHT22;2012;49.794;9.722;2023-04-29T03:51:24;9.30;99.90
3996;DHT22;2012;49.794;9.722;2023-04-29T03:53:56;9.30;99.90
3996;DHT22;2012;49.794;9.722;2023-04-29T03:56:24;9.40;99.90
3996;DHT22;2012;49.794;9.722;2023-04-29T03:58:52;9.40;99.90
3996;DHT22;2012;49.794;9.722;2023-04-29T04:01:21;9.40;99.90
3996;DHT22;2012;49.794;9.722;2023-04-29T04:03:48;9.40;99.90
3996;DHT22;2012;49.794;9.722;2023-04-29T04:06:15;9.40;99.90
3996;DHT22;2012;49.794;9.722;2023-04-29T04:08:43;9.40;99.90
3996;DHT22;2012;49.794;9.722;2023-04-29T04:11:13;9.40;99.90
3996;DHT22;2012;49.794;9.722;2023-04-29T04:13:44;9.50;99.90
3996;DHT22;2012;49.794;9.722;2023-04-29T04:16:11;9.50;99.90
3996;DHT22;2012;49.794;9.722;2023-04-29T04:18:38;9.60;99.90
3996;DHT22;2012;49.794;9.722;2023-04-29T04:21:10;9.60;99.90
3996;DHT22;2012;49.794;9.722;2023-04-29T04:23:41;9.60;99.90
3996;DHT22;2012;49.794;9.722;2023-04-29T04:26:10;9.60;99.90
3996;DHT22;2012;49.794;9.722;2023-04-29T04:28:56;9.60;99.90
3996;DHT22;2012;49.794;9.722;2023-04-29T04:31:38;9.50;99.90
3996;DHT22;2012;49.794;9.722;2023-04-29T04:34:06;9.30;99.90
3996;DHT22;2012;49.794;9.722;2023-04-29T04:36:33;9.50;99.90
3996;DHT22;2012;49.794;9.722;2023-04-29T04:39:01;9.70;99.90
3996;DHT22;2012;49.794;9.722;2023-04-29T04:41:27;9.70;99.90
3996;DHT22;2012;49.794;9.722;2023-04-29T04:43:57;9.70;99.90
3996;DHT22;2012;49.794;9.722;2023-04-29T04:46:47;9.70;99.90
3996;DHT22;2012;49.794;9.722;2023-04-29T04:49:24;9.70;99.90
3996;DHT22;2012;49.794;9.722;2023-04-29T04:51:52;9.70;99.90
3996;DHT22;2012;49.794;9.722;2023-04-29T04:54:19;9.80;99.90
3996;DHT22;2012;49.794;9.722;2023-04-29T04:56:50;9.80;99.90
3996;DHT22;2012;49.794;9.722;2023-04-29T04:59:19;9.90;99.90
3996;DHT22;2012;49.794;9.722;2023-04-29T05:01:46;9.90;99.90
3996;DHT22;2012;49.794;9.722;2023-04-29T05:04:13;10.00;99.90
3996;DHT22;2012;49.794;9.722;2023-04-29T05:06:41;9.90;99.90
3996;DHT22;2012;49.794;9.722;2023-04-29T05:09:07;9.90;99.90
3996;DHT22;2012;49.794;9.722;2023-04-29T05:11:34;10.00;99.90
3996;DHT22;2012;49.794;9.722;2023-04-29T05:14:11;10.10;99.90
3996;DHT22;2012;49.794;9.722;2023-04-29T05:16:38;10.10;99.90
3996;DHT22;2012;49.794;9.722;2023-04-29T05:19:05;10.00;99.90
3996;DHT22;2012;49.794;9.722;2023-04-29T05:21:35;10.10;99.90
3996;DHT22;2012;49.794;9.722;2023-04-29T05:24:02;10.10;99.90
3996;DHT22;2012;49.794;9.722;2023-04-29T05:26:29;10.10;99.90
3996;DHT22;2012;49.794;9.722;2023-04-29T05:28:59;10.00;99.90
3996;DHT22;2012;49.794;9.722;2023-04-29T05:31:30;10.20;99.90
3996;DHT22;2012;49.794;9.722;2023-04-29T05:34:01;10.20;99.90
3996;DHT22;2012;49.794;9.722;2023-04-29T05:36:27;10.30;99.90
3996;DHT22;2012;49.794;9.722;2023-04-29T05:38:56;10.30;99.90
3996;DHT22;2012;49.794;9.722;2023-04-29T05:41:23;10.30;99.90
3996;DHT22;2012;49.794;9.722;2023-04-29T05:44:10;10.30;99.90
3996;DHT22;2012;49.794;9.722;2023-04-29T05:46:37;10.40;99.90
3996;DHT22;2012;49.794;9.722;2023-04-29T05:49:05;10.40;99.90
3996;DHT22;2012;49.794;9.722;2023-04-29T05:51:32;10.50;99.90
3996;DHT22;2012;49.794;9.722;2023-04-29T05:53:58;10.50;99.90
3996;DHT22;2012;49.794;9.722;2023-04-29T05:56:27;10.60;99.90
3996;DHT22;2012;49.794;9.722;2023-04-29T05:58:55;10.60;99.90
3996;DHT22;2012;49.794;9.722;2023-04-29T06:01:21;10.60;99.90
3996;DHT22;2012;49.794;9.722;2023-04-29T06:03:48;10.70;99.90
3996;DHT22;2012;49.794;9.722;2023-04-29T06:06:28;10.70;99.90
3996;DHT22;2012;49.794;9.722;2023-04-29T06:09:13;10.80;99.90
3996;DHT22;2012;49.794;9.722;2023-04-29T06:11:55;10.90;99.90
3996;DHT22;2012;49.794;9.722;2023-04-29T06:14:23;11.00;99.90
3996;DHT22;2012;49.794;9.722;2023-04-29T06:16:51;11.00;99.90
3996;DHT22;2012;49.794;9.722;2023-04-29T06:19:19;11.10;99.90
3996;DHT22;2012;49.794;9.722;2023-04-29T06:21:47;11.10;99.90
3996;DHT22;2012;49.794;9.722;2023-04-29T06:24:13;11.20;99.90
3996;DHT22;2012;49.794;9.722;2023-04-29T06:26:40;11.20;99.90
3996;DHT22;2012;49.794;9.722;2023-04-29T06:29:07;11.30;99.90
3996;DHT22;2012;49.794;9.722;2023-04-29T06:31:35;11.40;99.90
3996;DHT22;2012;49.794;9.722;2023-04-29T06:34:03;11.40;99.90
3996;DHT22;2012;49.794;9.722;2023-04-29T06:36:31;11.50;99.90
3996;DHT22;2012;49.794;9.722;2023-04-29T06:39:16;11.50;99.90
3996;DHT22;2012;49.794;9.722;2023-04-29T06:42:06;11.60;99.90
3996;DHT22;2012;49.794;9.722;2023-04-29T06:45:06;11.60;99.90
3996;DHT22;2012;49.794;9.722;2023-04-29T06:47:44;11.60;99.90
3996;DHT22;2012;49.794;9.722;2023-04-29T06:50:16;11.70;99.90
3996;DHT22;2012;49.794;9.722;2023-04-29T06:52:43;11.70;99.90
3996;DHT22;2012;49.794;9.722;2023-04-29T06:55:10;11.80;99.90
3996;DHT22;2012;49.794;9.722;2023-04-29T06:57:40;11.80;99.90
3996;DHT22;2012;49.794;9.722;2023-04-29T07:00:08;11.80;99.90
3996;DHT22;2012;49.794;9.722;2023-04-29T07:02:35;11.90;99.90
3996;DHT22;2012;49.794;9.722;2023-04-29T07:05:05;12.00;99.90
3996;DHT22;2012;49.794;9.722;2023-04-29T07:07:32;12.00;99.90
3996;DHT22;2012;49.794;9.722;2023-04-29T07:09:59;12.10;99.90
3996;DHT22;2012;49.794;9.722;2023-04-29T07:12:26;12.10;99.90
3996;DHT22;2012;49.794;9.722;2023-04-29T07:14:53;12.20;99.90
3996;DHT22;2012;49.794;9.722;2023-04-29T07:17:20;12.30;99.90
3996;DHT22;2012;49.794;9.722;2023-04-29T07:19:47;12.30;99.90
3996;DHT22;2012;49.794;9.722;2023-04-29T07:22:14;12.30;99.90
3996;DHT22;2012;49.794;9.722;2023-04-29T07:24:41;12.40;99.90
3996;DHT22;2012;49.794;9.722;2023-04-29T07:27:07;12.50;99.90
3996;DHT22;2012;49.794;9.722;2023-04-29T07:29:35;12.60;99.90
3996;DHT22;2012;49.794;9.722;2023-04-29T07:32:02;12.60;99.90
3996;DHT22;2012;49.794;9.722;2023-04-29T07:34:29;12.60;99.90
3996;DHT22;2012;49.794;9.722;2023-04-29T07:36:56;12.60;99.90
3996;DHT22;2012;49.794;9.722;2023-04-29T07:39:23;12.60;99.90
3996;DHT22;2012;49.794;9.722;2023-04-29T07:41:54;12.60;99.90
3996;DHT22;2012;49.794;9.722;2023-04-29T07:44:20;12.60;99.90
3996;DHT22;2012;49.794;9.722;2023-04-29T07:46:48;12.60;99.90
3996;DHT22;2012;49.794;9.722;2023-04-29T07:49:14;12.60;99.90
3996;DHT22;2012;49.794;9.722;2023-04-29T07:51:42;12.60;99.90
3996;DHT22;2012;49.794;9.722;2023-04-29T07:54:09;12.70;99.90
3996;DHT22;2012;49.794;9.722;2023-04-29T07:56:36;12.70;99.90
3996;DHT22;2012;49.794;9.722;2023-04-29T07:59:03;12.80;99.90
3996;DHT22;2012;49.794;9.722;2023-04-29T08:01:29;12.80;99.90
3996;DHT22;2012;49.794;9.722;2023-04-29T08:03:57;12.90;99.90
3996;DHT22;2012;49.794;9.722;2023-04-29T08:06:26;12.90;99.90
3996;DHT22;2012;49.794;9.722;2023-04-29T08:08:52;12.90;99.90
3996;DHT22;2012;49.794;9.722;2023-04-29T08:11:21;12.90;99.90
3996;DHT22;2012;49.794;9.722;2023-04-29T08:13:50;13.00;99.90
3996;DHT22;2012;49.794;9.722;2023-04-29T08:16:17;13.00;99.90
3996;DHT22;2012;49.794;9.722;2023-04-29T08:18:44;13.10;99.90
3996;DHT22;2012;49.794;9.722;2023-04-29T08:21:11;13.10;99.90
3996;DHT22;2012;49.794;9.722;2023-04-29T08:23:38;13.10;99.90
3996;DHT22;2012;49.794;9.722;2023-04-29T08:26:05;13.10;99.90
3996;DHT22;2012;49.794;9.722;2023-04-29T08:28:32;13.10;99.90
3996;DHT22;2012;49.794;9.722;2023-04-29T08:30:59;13.20;99.90
3996;DHT22;2012;49.794;9.722;2023-04-29T08:33:26;13.20;99.90
3996;DHT22;2012;49.794;9.722;2023-04-29T08:35:59;13.30;99.90
3996;DHT22;2012;49.794;9.722;2023-04-29T08:38:29;13.40;99.90
3996;DHT22;2012;49.794;9.722;2023-04-29T08:40:57;13.40;99.90
3996;DHT22;2012;49.794;9.722;2023-04-29T08:43:25;13.50;99.90
3996;DHT22;2012;49.794;9.722;2023-04-29T08:45:52;13.50;99.90
3996;DHT22;2012;49.794;9.722;2023-04-29T08:48:20;13.70;99.90
3996;DHT22;2012;49.794;9.722;2023-04-29T08:50:48;13.70;99.90
3996;DHT22;2012;49.794;9.722;2023-04-29T08:53:15;13.80;99.90
3996;DHT22;2012;49.794;9.722;2023-04-29T08:55:46;13.80;99.90
3996;DHT22;2012;49.794;9.722;2023-04-29T08:58:14;13.90;99.90
3996;DHT22;2012;49.794;9.722;2023-04-29T09:00:42;13.90;99.90
3996;DHT22;2012;49.794;9.722;2023-04-29T09:03:16;14.00;99.90
3996;DHT22;2012;49.794;9.722;2023-04-29T09:05:48;14.10;99.90
3996;DHT22;2012;49.794;9.722;2023-04-29T09:08:20;14.60;99.90
3996;DHT22;2012;49.794;9.722;2023-04-29T09:10:48;14.90;99.90
3996;DHT22;2012;49.794;9.722;2023-04-29T09:13:27;14.90;99.90
3996;DHT22;2012;49.794;9.722;2023-04-29T09:15:54;14.70;99.90
3996;DHT22;2012;49.794;9.722;2023-04-29T09:18:44;14.80;99.90
3996;DHT22;2012;49.794;9.722;2023-04-29T09:21:18;14.70;99.90
3996;DHT22;2012;49.794;9.722;2023-04-29T09:23:53;14.70;99.90
3996;DHT22;2012;49.794;9.722;2023-04-29T09:26:20;15.20;99.90
3996;DHT22;2012;49.794;9.722;2023-04-29T09:29:06;15.30;99.90
3996;DHT22;2012;49.794;9.722;2023-04-29T09:31:33;15.20;99.90
3996;DHT22;2012;49.794;9.722;2023-04-29T09:34:00;15.40;99.90
3996;DHT22;2012;49.794;9.722;2023-04-29T09:36:45;15.20;99.90
3996;DHT22;2012;49.794;9.722;2023-04-29T09:39:17;14.70;99.90
3996;DHT22;2012;49.794;9.722;2023-04-29T09:44:22;14.50;99.90
3996;DHT22;2012;49.794;9.722;2023-04-29T09:46:56;14.60;99.90
3996;DHT22;2012;49.794;9.722;2023-04-29T09:49:25;14.60;99.90
3996;DHT22;2012;49.794;9.722;2023-04-29T09:51:57;14.60;99.90
3996;DHT22;2012;49.794;9.722;2023-04-29T09:54:27;14.60;99.90
3996;DHT22;2012;49.794;9.722;2023-04-29T09:56:55;14.70;99.90
3996;DHT22;2012;49.794;9.722;2023-04-29T09:59:22;14.60;99.90
3996;DHT22;2012;49.794;9.722;2023-04-29T10:01:51;14.60;99.90
3996;DHT22;2012;49.794;9.722;2023-04-29T10:04:20;14.50;99.90
3996;DHT22;2012;49.794;9.722;2023-04-29T10:06:49;14.50;99.90
3996;DHT22;2012;49.794;9.722;2023-04-29T10:09:17;14.60;99.90
3996;DHT22;2012;49.794;9.722;2023-04-29T10:11:46;14.60;99.90
3996;DHT22;2012;49.794;9.722;2023-04-29T10:14:18;14.50;99.90
3996;DHT22;2012;49.794;9.722;2023-04-29T10:16:50;14.50;99.90
3996;DHT22;2012;49.794;9.722;2023-04-29T10:19:25;14.50;99.90
3996;DHT22;2012;49.794;9.722;2023-04-29T10:21:54;14.60;99.90
3996;DHT22;2012;49.794;9.722;2023-04-29T10:24:24;14.60;99.90
3996;DHT22;2012;49.794;9.722;2023-04-29T10:26:52;14.50;99.90
3996;DHT22;2012;49.794;9.722;2023-04-29T10:29:21;14.50;99.90
3996;DHT22;2012;49.794;9.722;2023-04-29T10:31:51;14.40;99.90
3996;DHT22;2012;49.794;9.722;2023-04-29T10:34:19;14.50;99.90
3996;DHT22;2012;49.794;9.722;2023-04-29T10:36:47;14.40;99.90
3996;DHT22;2012;49.794;9.722;2023-04-29T10:39:25;14.30;99.90
3996;DHT22;2012;49.794;9.722;2023-04-29T10:41:53;14.30;99.90
3996;DHT22;2012;49.794;9.722;2023-04-29T10:44:21;14.40;99.90
3996;DHT22;2012;49.794;9.722;2023-04-29T10:47:18;14.40;99.90
3996;DHT22;2012;49.794;9.722;2023-04-29T10:50:02;14.40;99.90
3996;DHT22;2012;49.794;9.722;2023-04-29T10:52:30;14.50;99.90
3996;DHT22;2012;49.794;9.722;2023-04-29T10:55:03;14.50;99.90
3996;DHT22;2012;49.794;9.722;2023-04-29T10:57:30;14.50;99.90
3996;DHT22;2012;49.794;9.722;2023-04-29T10:59:56;14.60;99.90
3996;DHT22;2012;49.794;9.722;2023-04-29T11:02:24;14.70;99.90
3996;DHT22;2012;49.794;9.722;2023-04-29T11:05:08;14.70;99.90
3996;DHT22;2012;49.794;9.722;2023-04-29T11:07:36;14.70;99.90
3996;DHT22;2012;49.794;9.722;2023-04-29T11:10:03;14.70;99.90
3996;DHT22;2012;49.794;9.722;2023-04-29T11:12:30;14.70;99.90
3996;DHT22;2012;49.794;9.722;2023-04-29T11:14:57;14.60;99.90
3996;DHT22;2012;49.794;9.722;2023-04-29T11:17:34;14.60;99.90
3996;DHT22;2012;49.794;9.722;2023-04-29T11:20:02;14.60;99.90
3996;DHT22;2012;49.794;9.722;2023-04-29T11:22:29;14.60;99.90
3996;DHT22;2012;49.794;9.722;2023-04-29T11:25:01;14.70;99.90
3996;DHT22;2012;49.794;9.722;2023-04-29T11:27:33;14.60;99.90
3996;DHT22;2012;49.794;9.722;2023-04-29T11:30:02;14.60;99.90
3996;DHT22;2012;49.794;9.722;2023-04-29T11:32:35;14.60;99.90
3996;DHT22;2012;49.794;9.722;2023-04-29T11:35:13;14.60;99.90
3996;DHT22;2012;49.794;9.722;2023-04-29T11:37:42;14.60;99.90
3996;DHT22;2012;49.794;9.722;2023-04-29T11:40:09;14.70;99.90
3996;DHT22;2012;49.794;9.722;2023-04-29T11:42:43;14.70;99.90
3996;DHT22;2012;49.794;9.722;2023-04-29T11:45:10;14.60;99.90
3996;DHT22;2012;49.794;9.722;2023-04-29T11:47:44;14.60;99.90
3996;DHT22;2012;49.794;9.722;2023-04-29T11:50:13;14.60;99.90
3996;DHT22;2012;49.794;9.722;2023-04-29T11:52:42;14.50;99.90
3996;DHT22;2012;49.794;9.722;2023-04-29T11:55:11;14.50;99.90
3996;DHT22;2012;49.794;9.722;2023-04-29T11:57:40;14.50;99.90
3996;DHT22;2012;49.794;9.722;2023-04-29T12:00:11;14.50;99.90
3996;DHT22;2012;49.794;9.722;2023-04-29T12:02:43;14.30;99.90
3996;DHT22;2012;49.794;9.722;2023-04-29T12:05:12;14.40;99.90
3996;DHT22;2012;49.794;9.722;2023-04-29T12:07:42;14.50;99.90
3996;DHT22;2012;49.794;9.722;2023-04-29T12:10:10;14.40;99.90
3996;DHT22;2012;49.794;9.722;2023-04-29T12:12:38;14.40;99.90
3996;DHT22;2012;49.794;9.722;2023-04-29T12:15:08;14.40;99.90
3996;DHT22;2012;49.794;9.722;2023-04-29T12:17:36;14.40;99.90
3996;DHT22;2012;49.794;9.722;2023-04-29T12:20:04;14.50;99.90
3996;DHT22;2012;49.794;9.722;2023-04-29T12:22:32;14.50;99.90
3996;DHT22;2012;49.794;9.722;2023-04-29T12:24:59;14.50;99.90
3996;DHT22;2012;49.794;9.722;2023-04-29T12:27:26;14.50;99.90
3996;DHT22;2012;49.794;9.722;2023-04-29T12:29:53;14.40;99.90
3996;DHT22;2012;49.794;9.722;2023-04-29T12:32:24;14.50;99.90
3996;DHT22;2012;49.794;9.722;2023-04-29T12:34:52;14.50;99.90
3996;DHT22;2012;49.794;9.722;2023-04-29T12:37:21;14.70;99.90
3996;DHT22;2012;49.794;9.722;2023-04-29T12:39:49;14.80;99.90
3996;DHT22;2012;49.794;9.722;2023-04-29T12:42:16;14.90;99.90
3996;DHT22;2012;49.794;9.722;2023-04-29T12:44:49;14.90;99.90
3996;DHT22;2012;49.794;9.722;2023-04-29T12:47:16;15.00;99.90
3996;DHT22;2012;49.794;9.722;2023-04-29T12:49:44;15.00;99.90
3996;DHT22;2012;49.794;9.722;2023-04-29T12:52:12;15.00;99.90
3996;DHT22;2012;49.794;9.722;2023-04-29T12:54:39;14.90;99.90
3996;DHT22;2012;49.794;9.722;2023-04-29T12:57:09;14.90;99.90
3996;DHT22;2012;49.794;9.722;2023-04-29T12:59:36;14.80;99.90
3996;DHT22;2012;49.794;9.722;2023-04-29T13:02:04;14.80;99.90
3996;DHT22;2012;49.794;9.722;2023-04-29T13:04:31;14.80;99.90
3996;DHT22;2012;49.794;9.722;2023-04-29T13:06:58;14.80;99.90
3996;DHT22;2012;49.794;9.722;2023-04-29T13:09:28;14.70;99.90
3996;DHT22;2012;49.794;9.722;2023-04-29T13:11:56;14.60;99.90
3996;DHT22;2012;49.794;9.722;2023-04-29T13:14:25;14.60;99.90
3996;DHT22;2012;49.794;9.722;2023-04-29T13:16:52;14.60;99.90
3996;DHT22;2012;49.794;9.722;2023-04-29T13:19:19;14.70;99.90
3996;DHT22;2012;49.794;9.722;2023-04-29T13:22:06;14.70;99.90
3996;DHT22;2012;49.794;9.722;2023-04-29T13:24:33;14.60;99.90
3996;DHT22;2012;49.794;9.722;2023-04-29T13:27:01;14.70;99.90
3996;DHT22;2012;49.794;9.722;2023-04-29T13:29:31;14.70;99.90
3996;DHT22;2012;49.794;9.722;2023-04-29T13:31:58;14.90;99.90
3996;DHT22;2012;49.794;9.722;2023-04-29T13:34:25;15.00;99.90
3996;DHT22;2012;49.794;9.722;2023-04-29T13:36:52;15.10;99.90
3996;DHT22;2012;49.794;9.722;2023-04-29T13:39:19;15.30;99.90
3996;DHT22;2012;49.794;9.722;2023-04-29T13:41:48;15.30;99.90
3996;DHT22;2012;49.794;9.722;2023-04-29T13:44:15;15.50;99.90
3996;DHT22;2012;49.794;9.722;2023-04-29T13:47:01;15.40;99.90
3996;DHT22;2012;49.794;9.722;2023-04-29T13:49:31;15.30;99.90
3996;DHT22;2012;49.794;9.722;2023-04-29T13:52:01;15.30;99.90
3996;DHT22;2012;49.794;9.722;2023-04-29T13:54:31;15.20;99.90
3996;DHT22;2012;49.794;9.722;2023-04-29T13:57:01;15.10;99.90
3996;DHT22;2012;49.794;9.722;2023-04-29T13:59:34;15.10;99.90
3996;DHT22;2012;49.794;9.722;2023-04-29T14:02:16;15.00;99.90
3996;DHT22;2012;49.794;9.722;2023-04-29T14:04:51;14.90;99.90
3996;DHT22;2012;49.794;9.722;2023-04-29T14:07:20;14.80;99.90
3996;DHT22;2012;49.794;9.722;2023-04-29T14:09:47;14.70;99.90
3996;DHT22;2012;49.794;9.722;2023-04-29T14:12:15;14.70;99.90
3996;DHT22;2012;49.794;9.722;2023-04-29T14:14:42;14.60;99.90
3996;DHT22;2012;49.794;9.722;2023-04-29T14:17:09;14.50;99.90
3996;DHT22;2012;49.794;9.722;2023-04-29T14:19:36;14.60;99.90
3996;DHT22;2012;49.794;9.722;2023-04-29T14:22:03;14.50;99.90
3996;DHT22;2012;49.794;9.722;2023-04-29T14:24:30;14.40;99.90
3996;DHT22;2012;49.794;9.722;2023-04-29T14:26:57;14.50;99.90
3996;DHT22;2012;49.794;9.722;2023-04-29T14:29:24;14.60;99.90
3996;DHT22;2012;49.794;9.722;2023-04-29T14:31:51;14.60;99.90
3996;DHT22;2012;49.794;9.722;2023-04-29T14:34:18;14.60;99.90
3996;DHT22;2012;49.794;9.722;2023-04-29T14:36:45;14.70;99.90
3996;DHT22;2012;49.794;9.722;2023-04-29T14:39:13;14.70;99.90
3996;DHT22;2012;49.794;9.722;2023-04-29T14:41:40;14.70;99.90
3996;DHT22;2012;49.794;9.722;2023-04-29T14:44:07;14.70;99.90
3996;DHT22;2012;49.794;9.722;2023-04-29T14:46:33;14.60;99.90
3996;DHT22;2012;49.794;9.722;2023-04-29T14:49:00;14.60;99.90
3996;DHT22;2012;49.794;9.722;2023-04-29T14:51:27;14.60;99.90
3996;DHT22;2012;49.794;9.722;2023-04-29T14:53:54;14.60;99.90
3996;DHT22;2012;49.794;9.722;2023-04-29T14:56:22;14.50;99.90
3996;DHT22;2012;49.794;9.722;2023-04-29T14:58:49;14.50;99.90
3996;DHT22;2012;49.794;9.722;2023-04-29T15:01:15;14.50;99.90
3996;DHT22;2012;49.794;9.722;2023-04-29T15:03:42;14.60;99.90
3996;DHT22;2012;49.794;9.722;2023-04-29T15:06:11;14.50;99.90
3996;DHT22;2012;49.794;9.722;2023-04-29T15:08:38;14.50;99.90
3996;DHT22;2012;49.794;9.722;2023-04-29T15:11:05;14.40;99.90
3996;DHT22;2012;49.794;9.722;2023-04-29T15:13:31;14.40;99.90
3996;DHT22;2012;49.794;9.722;2023-04-29T15:15:58;14.40;99.90
3996;DHT22;2012;49.794;9.722;2023-04-29T15:18:25;14.50;99.90
3996;DHT22;2012;49.794;9.722;2023-04-29T15:20:53;14.50;99.90
3996;DHT22;2012;49.794;9.722;2023-04-29T15:23:20;14.50;99.90
3996;DHT22;2012;49.794;9.722;2023-04-29T15:25:47;14.50;99.90
3996;DHT22;2012;49.794;9.722;2023-04-29T15:28:14;14.60;99.90
3996;DHT22;2012;49.794;9.722;2023-04-29T15:30:40;14.60;99.90
3996;DHT22;2012;49.794;9.722;2023-04-29T15:33:07;14.50;99.90
3996;DHT22;2012;49.794;9.722;2023-04-29T15:35:34;14.50;99.90
3996;DHT22;2012;49.794;9.722;2023-04-29T15:38:02;14.60;99.90
3996;DHT22;2012;49.794;9.722;2023-04-29T15:40:28;14.70;99.90
3996;DHT22;2012;49.794;9.722;2023-04-29T15:42:55;14.70;99.90
3996;DHT22;2012;49.794;9.722;2023-04-29T15:45:22;14.70;99.90
3996;DHT22;2012;49.794;9.722;2023-04-29T15:47:49;14.70;99.90
3996;DHT22;2012;49.794;9.722;2023-04-29T15:50:16;14.70;99.90
3996;DHT22;2012;49.794;9.722;2023-04-29T15:52:43;14.80;99.90
3996;DHT22;2012;49.794;9.722;2023-04-29T15:55:09;14.80;99.90
3996;DHT22;2012;49.794;9.722;2023-04-29T15:57:37;14.80;99.90
3996;DHT22;2012;49.794;9.722;2023-04-29T16:00:07;14.70;99.90
3996;DHT22;2012;49.794;9.722;2023-04-29T16:02:34;14.70;99.90
3996;DHT22;2012;49.794;9.722;2023-04-29T16:05:01;14.70;99.90
3996;DHT22;2012;49.794;9.722;2023-04-29T16:07:29;14.60;99.90
3996;DHT22;2012;49.794;9.722;2023-04-29T16:09:56;14.50;99.90
3996;DHT22;2012;49.794;9.722;2023-04-29T16:12:22;14.50;99.90
3996;DHT22;2012;49.794;9.722;2023-04-29T16:14:49;14.50;99.90
3996;DHT22;2012;49.794;9.722;2023-04-29T16:17:16;14.60;99.90
3996;DHT22;2012;49.794;9.722;2023-04-29T16:19:43;14.50;99.90
3996;DHT22;2012;49.794;9.722;2023-04-29T16:22:10;14.40;99.90
3996;DHT22;2012;49.794;9.722;2023-04-29T16:24:37;14.30;99.90
3996;DHT22;2012;49.794;9.722;2023-04-29T16:27:04;14.40;99.90
3996;DHT22;2012;49.794;9.722;2023-04-29T16:29:31;14.40;99.90
3996;DHT22;2012;49.794;9.722;2023-04-29T16:31:57;14.30;99.90